createdAt,value
2023-01-13T00:00:17.434Z,3.58
2023-01-13T00:02:45.410Z,3.62
2023-01-13T00:05:13.344Z,3.65
2023-01-13T00:07:41.256Z,3.76
2023-01-13T00:10:10.805Z,3.77
2023-01-13T00:12:41.771Z,3.51
2023-01-13T00:15:11.291Z,3.38
2023-01-13T00:17:39.887Z,3.42
2023-01-13T00:20:09.069Z,3.55
2023-01-13T00:22:37.216Z,3.41
2023-01-13T00:25:06.658Z,3.48
2023-01-13T00:27:34.797Z,3.39
2023-01-13T00:30:04.364Z,3.43
2023-01-13T00:32:32.437Z,3.50
2023-01-13T00:35:00.456Z,3.51
2023-01-13T00:37:28.535Z,3.60
2023-01-13T00:39:57.843Z,3.58
2023-01-13T00:42:42.934Z,3.85
2023-01-13T00:45:12.493Z,3.74
2023-01-13T00:47:40.610Z,3.66
2023-01-13T00:50:09.598Z,3.51
2023-01-13T00:52:37.521Z,3.57
2023-01-13T00:55:06.115Z,3.61
2023-01-13T00:57:34.003Z,3.61
2023-01-13T01:00:01.953Z,3.67
2023-01-13T01:02:31.323Z,3.77
2023-01-13T01:05:00.016Z,3.71
2023-01-13T01:07:27.943Z,3.62
2023-01-13T01:09:55.821Z,3.55
2023-01-13T01:12:23.738Z,3.56
2023-01-13T01:14:51.623Z,3.66
2023-01-13T01:17:19.512Z,3.65
2023-01-13T01:19:48.770Z,3.76
2023-01-13T01:22:16.688Z,4.09
2023-01-13T01:24:44.572Z,4.25
2023-01-13T01:27:12.466Z,4.31
2023-01-13T01:29:40.336Z,4.19
2023-01-13T01:32:08.248Z,4.20
2023-01-13T01:34:36.303Z,4.13
2023-01-13T01:37:05.572Z,4.07
2023-01-13T01:39:33.535Z,3.80
2023-01-13T01:42:15.359Z,3.62
2023-01-13T01:45:04.548Z,3.82
2023-01-13T01:47:33.375Z,3.75
2023-01-13T01:50:02.648Z,3.73
2023-01-13T01:52:34.326Z,3.84
2023-01-13T01:55:06.376Z,3.76
2023-01-13T01:57:38.377Z,3.93
2023-01-13T02:00:07.058Z,3.63
2023-01-13T02:02:35.104Z,3.65
2023-01-13T02:05:03.424Z,3.67
2023-01-13T02:07:33.756Z,3.84
2023-01-13T02:10:05.813Z,3.62
2023-01-13T02:12:32.949Z,3.47
2023-01-13T02:15:02.643Z,3.51
2023-01-13T02:17:54.243Z,3.58
2023-01-13T02:20:35.532Z,3.50
2023-01-13T02:24:00.223Z,3.41
2023-01-13T02:27:01.628Z,3.50
2023-01-13T02:30:09.671Z,3.76
2023-01-13T02:32:43.502Z,4.30
2023-01-13T02:35:15.135Z,4.22
2023-01-13T02:37:44.981Z,4.30
2023-01-13T02:40:15.865Z,4.22
2023-01-13T02:43:07.193Z,4.32
2023-01-13T02:45:39.518Z,4.25
2023-01-13T02:48:09.251Z,4.24
2023-01-13T02:50:40.682Z,4.29
2023-01-13T02:53:12.578Z,4.36
2023-01-13T02:55:44.126Z,4.27
2023-01-13T02:58:15.071Z,4.22
2023-01-13T03:00:44.844Z,4.29
2023-01-13T03:03:12.855Z,4.35
2023-01-13T03:05:42.058Z,4.37
2023-01-13T03:08:21.916Z,4.33
2023-01-13T03:11:00.777Z,4.38
2023-01-13T03:13:56.592Z,4.33
2023-01-13T03:16:47.223Z,4.40
2023-01-13T03:19:20.624Z,4.30
2023-01-13T03:21:53.590Z,4.21
2023-01-13T03:24:23.683Z,4.21
2023-01-13T03:26:55.059Z,4.23
2023-01-13T03:29:26.055Z,4.34
2023-01-13T03:32:00.990Z,4.90
2023-01-13T03:34:32.606Z,4.96
2023-01-13T03:37:05.058Z,4.76
2023-01-13T03:39:35.739Z,4.80
2023-01-13T03:42:06.839Z,4.65
2023-01-13T03:44:37.438Z,4.72
2023-01-13T03:47:19.207Z,5.08
2023-01-13T03:49:53.300Z,4.96
2023-01-13T03:52:25.133Z,5.07
2023-01-13T03:54:58.125Z,5.22
2023-01-13T03:57:29.666Z,4.87
2023-01-13T04:00:00.370Z,4.56
2023-01-13T04:02:39.571Z,4.62
2023-01-13T04:05:09.477Z,4.86
2023-01-13T04:07:45.668Z,4.90
2023-01-13T04:10:15.813Z,5.50
2023-01-13T04:13:01.755Z,5.65
2023-01-13T04:15:34.763Z,6.09
2023-01-13T04:18:15.649Z,6.10
2023-01-13T04:20:44.947Z,6.51
2023-01-13T04:23:13.642Z,6.90
2023-01-13T04:25:42.203Z,7.08
2023-01-13T04:28:10.164Z,7.11
2023-01-13T04:30:38.543Z,7.01
2023-01-13T04:33:06.769Z,7.16
2023-01-13T04:35:36.665Z,7.06
2023-01-13T04:38:05.629Z,7.14
2023-01-13T04:40:33.553Z,7.27
2023-01-13T04:43:01.431Z,7.24
2023-01-13T04:45:29.354Z,7.36
2023-01-13T04:47:57.224Z,7.38
2023-01-13T04:50:25.387Z,7.42
2023-01-13T04:52:55.325Z,7.34
2023-01-13T04:55:24.363Z,7.42
2023-01-13T04:57:52.319Z,7.37
2023-01-13T05:00:22.321Z,7.42
2023-01-13T05:02:50.945Z,7.26
2023-01-13T05:05:19.009Z,7.35
2023-01-13T05:07:47.004Z,7.30
2023-01-13T05:10:16.433Z,7.60
2023-01-13T05:13:01.598Z,7.26
2023-01-13T05:15:47.123Z,7.26
2023-01-13T05:18:15.118Z,7.16
2023-01-13T05:20:42.985Z,7.12
2023-01-13T05:23:28.298Z,7.03
2023-01-13T05:25:57.591Z,6.99
2023-01-13T05:28:25.552Z,6.73
2023-01-13T05:30:53.550Z,6.32
2023-01-13T05:33:21.652Z,6.30
2023-01-13T05:35:50.070Z,6.18
2023-01-13T05:38:18.926Z,5.90
2023-01-13T05:41:04.500Z,5.68
2023-01-13T05:43:34.890Z,5.73
2023-01-13T05:46:04.178Z,5.78
2023-01-13T05:48:34.102Z,5.84
2023-01-13T05:51:02.243Z,5.84
2023-01-13T05:53:30.363Z,5.89
2023-01-13T05:55:58.596Z,5.96
2023-01-13T05:58:27.936Z,6.42
2023-01-13T06:01:02.158Z,6.32
2023-01-13T06:03:30.147Z,6.51
2023-01-13T06:06:01.825Z,6.43
2023-01-13T06:08:30.161Z,6.31
2023-01-13T06:10:58.169Z,6.15
2023-01-13T06:13:26.358Z,6.09
2023-01-13T06:15:57.500Z,5.98
2023-01-13T06:18:27.691Z,5.87
2023-01-13T06:20:55.933Z,5.71
2023-01-13T06:23:23.889Z,5.59
2023-01-13T06:25:57.909Z,5.56
2023-01-13T06:28:25.937Z,5.61
2023-01-13T06:30:57.482Z,5.59
2023-01-13T06:33:29.791Z,5.68
2023-01-13T06:35:59.514Z,6.12
2023-01-13T06:38:29.065Z,6.67
2023-01-13T06:40:57.128Z,6.85
2023-01-13T06:43:24.086Z,7.17
2023-01-13T06:45:54.520Z,7.38
2023-01-13T06:48:24.351Z,7.15
2023-01-13T06:50:53.630Z,7.21
2023-01-13T06:53:21.689Z,7.00
2023-01-13T06:55:49.615Z,6.82
2023-01-13T06:58:17.585Z,6.68
2023-01-13T07:00:49.667Z,6.56
2023-01-13T07:03:18.974Z,6.50
2023-01-13T07:05:54.456Z,6.32
2023-01-13T07:08:22.745Z,6.25
2023-01-13T07:10:51.239Z,6.20
2023-01-13T07:13:36.881Z,6.24
2023-01-13T07:16:06.541Z,6.11
2023-01-13T07:18:35.396Z,5.91
2023-01-13T07:21:06.418Z,5.94
2023-01-13T07:23:35.735Z,5.84
2023-01-13T07:26:04.033Z,5.71
2023-01-13T07:28:32.032Z,5.76
2023-01-13T07:31:00.493Z,5.95
2023-01-13T07:33:28.753Z,6.23
2023-01-13T07:36:00.411Z,6.12
2023-01-13T07:38:30.087Z,6.03
2023-01-13T07:40:58.049Z,5.88
2023-01-13T07:43:33.667Z,5.77
2023-01-13T07:46:03.298Z,5.84
2023-01-13T07:48:32.233Z,5.97
2023-01-13T07:51:02.914Z,6.04
2023-01-13T07:53:32.338Z,6.03
2023-01-13T07:56:00.943Z,6.00
2023-01-13T07:58:30.807Z,6.11
2023-01-13T08:00:58.944Z,6.00
2023-01-13T08:03:27.943Z,5.82
2023-01-13T08:05:55.838Z,5.94
2023-01-13T08:08:23.910Z,5.89
2023-01-13T08:10:53.230Z,5.90
2023-01-13T08:13:21.450Z,5.93
2023-01-13T08:15:51.545Z,5.87
2023-01-13T08:18:22.404Z,5.94
2023-01-13T08:20:52.541Z,6.00
2023-01-13T08:23:20.774Z,5.91
2023-01-13T08:25:48.781Z,5.95
2023-01-13T08:28:18.465Z,6.09
2023-01-13T08:30:46.466Z,6.17
2023-01-13T08:33:14.566Z,6.25
2023-01-13T08:35:42.972Z,6.28
2023-01-13T08:38:10.987Z,6.32
2023-01-13T08:40:40.719Z,6.17
2023-01-13T08:43:08.591Z,6.43
2023-01-13T08:45:37.940Z,6.63
2023-01-13T08:48:06.046Z,6.89
2023-01-13T08:50:34.003Z,7.45
2023-01-13T08:53:02.081Z,7.83
2023-01-13T08:55:32.484Z,8.13
2023-01-13T08:58:14.518Z,8.51
2023-01-13T09:00:45.898Z,8.52
2023-01-13T09:03:13.799Z,8.67
2023-01-13T09:05:41.783Z,8.63
2023-01-13T09:08:09.919Z,8.90
2023-01-13T09:10:40.380Z,8.99
2023-01-13T09:13:13.381Z,9.21
2023-01-13T09:15:42.890Z,9.19
2023-01-13T09:18:12.499Z,9.25
2023-01-13T09:20:40.478Z,9.30
2023-01-13T09:23:10.542Z,9.44
2023-01-13T09:25:39.791Z,9.60
2023-01-13T09:28:08.634Z,9.66
2023-01-13T09:30:38.093Z,9.69
2023-01-13T09:33:23.357Z,9.66
2023-01-13T09:35:52.673Z,9.69
2023-01-13T09:38:20.616Z,9.82
2023-01-13T09:40:50.241Z,9.78
2023-01-13T09:43:38.932Z,9.83
2023-01-13T09:46:30.147Z,9.82
2023-01-13T09:48:58.674Z,9.94
2023-01-13T09:51:32.067Z,10.02
2023-01-13T09:54:04.440Z,10.11
2023-01-13T09:56:32.348Z,10.09
2023-01-13T09:59:00.276Z,10.03
2023-01-13T10:01:31.262Z,10.07
2023-01-13T10:04:04.484Z,10.22
2023-01-13T10:06:37.007Z,10.08
2023-01-13T10:09:05.006Z,10.11
2023-01-13T10:11:53.372Z,10.23
2023-01-13T10:14:25.862Z,10.33
2023-01-13T10:17:01.053Z,10.34
2023-01-13T10:19:32.298Z,10.35
2023-01-13T10:22:25.849Z,10.40
2023-01-13T10:25:18.176Z,10.45
2023-01-13T10:27:50.144Z,10.40
2023-01-13T10:30:23.797Z,10.48
2023-01-13T10:32:55.413Z,10.44
2023-01-13T10:35:52.330Z,10.48
2023-01-13T10:38:23.598Z,10.42
2023-01-13T10:40:53.170Z,10.39
2023-01-13T10:43:21.231Z,10.49
2023-01-13T10:45:59.626Z,10.64
2023-01-13T10:48:35.741Z,10.69
2023-01-13T10:51:20.556Z,10.81
2023-01-13T10:53:54.358Z,10.95
2023-01-13T10:56:23.777Z,10.90
2023-01-13T10:58:51.694Z,10.97
2023-01-13T11:01:25.801Z,10.93
2023-01-13T11:03:55.261Z,10.93
2023-01-13T11:06:26.149Z,10.98
2023-01-13T11:08:58.288Z,10.88
2023-01-13T11:11:42.931Z,10.87
2023-01-13T11:14:37.027Z,10.77
2023-01-13T11:17:10.815Z,10.72
2023-01-13T11:19:42.941Z,10.76
2023-01-13T11:22:13.453Z,10.74
2023-01-13T11:24:46.665Z,10.71
2023-01-13T11:27:17.851Z,10.66
2023-01-13T11:29:59.311Z,10.63
2023-01-13T11:32:31.844Z,10.58
2023-01-13T11:35:03.491Z,10.59
2023-01-13T11:37:32.890Z,10.54
2023-01-13T11:40:05.969Z,10.49
2023-01-13T11:42:37.867Z,10.52
2023-01-13T11:45:12.236Z,10.47
2023-01-13T11:47:40.218Z,10.36
2023-01-13T11:50:16.171Z,10.44
2023-01-13T11:52:56.770Z,10.36
2023-01-13T11:55:33.624Z,10.42
2023-01-13T11:58:50.988Z,10.51
2023-01-13T12:01:39.581Z,10.62
2023-01-13T12:04:24.821Z,10.76
2023-01-13T12:07:01.604Z,10.75
2023-01-13T12:09:41.042Z,10.67
2023-01-13T12:12:27.401Z,10.69
2023-01-13T12:15:14.404Z,10.96
2023-01-13T12:17:49.000Z,11.19
2023-01-13T12:20:26.265Z,11.44
2023-01-13T12:22:58.134Z,11.55
2023-01-13T12:25:31.418Z,11.64
2023-01-13T12:28:04.707Z,11.50
2023-01-13T12:30:37.629Z,11.23
2023-01-13T12:33:16.757Z,11.20
2023-01-13T12:35:52.594Z,11.15
2023-01-13T12:38:26.858Z,10.80
2023-01-13T12:41:00.059Z,10.60
2023-01-13T12:43:47.309Z,10.00
2023-01-13T12:46:44.202Z,9.58
2023-01-13T12:49:23.406Z,9.24
2023-01-13T12:52:16.225Z,9.02
2023-01-13T12:55:08.160Z,9.07
2023-01-13T12:57:36.144Z,8.95
2023-01-13T13:00:21.887Z,8.76
2023-01-13T13:03:22.569Z,8.53
2023-01-13T13:05:56.908Z,8.42
2023-01-13T13:08:32.320Z,8.46
2023-01-13T13:11:39.081Z,8.56
2023-01-13T13:14:07.811Z,8.58
2023-01-13T13:16:49.309Z,8.70
2023-01-13T13:19:50.387Z,8.78
2023-01-13T13:22:31.774Z,8.79
2023-01-13T13:25:21.819Z,8.58
2023-01-13T13:28:18.831Z,8.60
2023-01-13T13:31:11.513Z,8.53
2023-01-13T13:33:48.979Z,8.62
2023-01-13T13:36:31.604Z,8.55
2023-01-13T13:39:25.103Z,8.66
2023-01-13T13:42:13.895Z,8.69
2023-01-13T13:45:01.556Z,8.90
2023-01-13T13:47:36.329Z,8.89
2023-01-13T13:50:10.517Z,8.86
2023-01-13T13:52:42.730Z,8.77
2023-01-13T13:55:18.538Z,8.76
2023-01-13T13:57:48.382Z,8.72
2023-01-13T14:00:26.945Z,9.06
2023-01-13T14:02:58.433Z,9.13
2023-01-13T14:05:29.948Z,9.03
2023-01-13T14:08:02.005Z,9.13
2023-01-13T14:10:33.051Z,9.02
2023-01-13T14:13:03.030Z,9.06
2023-01-13T14:15:33.688Z,9.01
2023-01-13T14:18:03.499Z,8.90
2023-01-13T14:20:34.562Z,8.87
2023-01-13T14:23:05.447Z,8.59
2023-01-13T14:25:37.045Z,8.82
2023-01-13T14:28:21.355Z,8.71
2023-01-13T14:30:50.259Z,8.55
2023-01-13T14:33:19.988Z,8.48
2023-01-13T14:36:15.627Z,8.44
2023-01-13T14:38:45.280Z,8.57
2023-01-13T14:41:18.092Z,8.59
2023-01-13T14:43:46.873Z,8.73
2023-01-13T14:46:15.245Z,8.70
2023-01-13T14:48:47.231Z,8.50
2023-01-13T14:51:28.026Z,8.31
2023-01-13T14:53:57.411Z,8.36
2023-01-13T14:56:50.303Z,8.35
2023-01-13T14:59:43.157Z,8.29
2023-01-13T15:02:44.994Z,8.25
2023-01-13T15:05:47.408Z,8.13
2023-01-13T15:08:40.456Z,8.06
2023-01-13T15:11:09.528Z,8.17
2023-01-13T15:13:47.016Z,8.02
2023-01-13T15:16:23.304Z,7.96
2023-01-13T15:18:51.489Z,8.13
2023-01-13T15:21:19.592Z,7.73
2023-01-13T15:23:48.888Z,7.78
2023-01-13T15:26:20.324Z,7.99
2023-01-13T15:28:48.409Z,7.72
2023-01-13T15:31:16.457Z,7.55
2023-01-13T15:33:44.459Z,7.50
2023-01-13T15:36:21.648Z,7.44
2023-01-13T15:38:51.247Z,7.30
2023-01-13T15:41:39.840Z,7.08
2023-01-13T15:44:25.054Z,7.04
2023-01-13T15:46:53.369Z,6.80
2023-01-13T15:49:26.315Z,6.59
2023-01-13T15:51:54.429Z,6.38
2023-01-13T15:54:24.694Z,6.25
2023-01-13T15:56:53.121Z,6.25
2023-01-13T15:59:24.428Z,5.96
2023-01-13T16:01:52.353Z,5.80
2023-01-13T16:04:20.242Z,5.67
2023-01-13T16:06:48.494Z,5.68
2023-01-13T16:09:16.918Z,5.63
2023-01-13T16:11:46.316Z,5.43
2023-01-13T16:14:14.225Z,5.33
2023-01-13T16:16:42.190Z,5.32
2023-01-13T16:19:12.368Z,5.51
2023-01-13T16:21:40.477Z,5.54
2023-01-13T16:24:08.414Z,5.53
2023-01-13T16:26:37.627Z,5.78
2023-01-13T16:29:07.264Z,5.48
2023-01-13T16:31:35.786Z,5.42
2023-01-13T16:34:05.195Z,5.29
2023-01-13T16:36:35.372Z,5.24
2023-01-13T16:39:03.466Z,5.32
2023-01-13T16:41:31.336Z,5.33
2023-01-13T16:44:05.887Z,5.56
2023-01-13T16:46:35.296Z,5.48
2023-01-13T16:49:05.172Z,5.81
2023-01-13T16:51:33.643Z,5.67
2023-01-13T16:54:01.590Z,5.80
2023-01-13T16:56:31.720Z,5.59
2023-01-13T16:59:03.183Z,5.58
2023-01-13T17:01:32.443Z,5.67
2023-01-13T17:04:02.798Z,5.60
2023-01-13T17:06:34.489Z,5.56
2023-01-13T17:09:04.265Z,5.54
2023-01-13T17:11:32.367Z,5.68
2023-01-13T17:14:00.369Z,5.96
2023-01-13T17:16:32.229Z,5.90
2023-01-13T17:19:01.586Z,6.00
2023-01-13T17:21:29.488Z,5.97
2023-01-13T17:23:57.811Z,6.07
2023-01-13T17:26:32.337Z,6.07
2023-01-13T17:29:01.466Z,6.18
2023-01-13T17:31:29.925Z,6.24
2023-01-13T17:33:58.165Z,6.18
2023-01-13T17:36:27.439Z,6.17
2023-01-13T17:38:56.019Z,6.10
2023-01-13T17:41:24.176Z,6.12
2023-01-13T17:43:52.663Z,6.11
2023-01-13T17:46:22.530Z,6.09
2023-01-13T17:48:50.987Z,5.98
2023-01-13T17:51:19.644Z,5.90
2023-01-13T17:53:48.956Z,5.85
2023-01-13T17:56:17.749Z,5.66
2023-01-13T17:58:46.823Z,5.64
2023-01-13T18:01:16.917Z,5.48
2023-01-13T18:03:45.141Z,5.38
2023-01-13T18:06:16.989Z,5.37
2023-01-13T18:08:45.342Z,5.11
2023-01-13T18:11:15.065Z,4.98
2023-01-13T18:13:42.997Z,4.84
2023-01-13T18:16:12.351Z,4.82
2023-01-13T18:18:41.049Z,4.53
2023-01-13T18:21:28.489Z,4.48
2023-01-13T18:24:10.242Z,4.53
2023-01-13T18:26:56.844Z,4.57
2023-01-13T18:29:25.982Z,4.50
2023-01-13T18:31:53.881Z,5.10
2023-01-13T18:34:21.756Z,5.49
2023-01-13T18:36:49.682Z,5.67
2023-01-13T18:39:17.989Z,5.76
2023-01-13T18:42:04.741Z,5.85
2023-01-13T18:44:32.607Z,5.95
2023-01-13T18:47:00.463Z,5.91
2023-01-13T18:49:28.502Z,5.97
2023-01-13T18:51:56.396Z,6.00
2023-01-13T18:54:24.269Z,5.95
2023-01-13T18:56:53.617Z,5.85
2023-01-13T18:59:21.480Z,5.82
2023-01-13T19:01:49.636Z,5.84
2023-01-13T19:04:18.701Z,5.82
2023-01-13T19:06:51.451Z,5.84
2023-01-13T19:09:22.714Z,5.86
2023-01-13T19:11:51.481Z,5.78
2023-01-13T19:14:34.974Z,5.79
2023-01-13T19:17:03.297Z,5.81
2023-01-13T19:19:31.323Z,5.77
2023-01-13T19:21:59.456Z,5.72
2023-01-13T19:24:27.405Z,5.65
2023-01-13T19:26:55.737Z,5.68
2023-01-13T19:29:25.000Z,5.67
2023-01-13T19:31:52.950Z,5.64
2023-01-13T19:34:22.814Z,5.56
2023-01-13T19:36:52.842Z,5.53
2023-01-13T19:39:20.793Z,5.52
2023-01-13T19:42:06.374Z,5.44
2023-01-13T19:44:53.446Z,5.44
2023-01-13T19:47:21.525Z,5.50
2023-01-13T19:49:49.531Z,5.51
2023-01-13T19:52:17.545Z,5.38
2023-01-13T19:54:46.150Z,5.43
2023-01-13T19:57:14.534Z,5.45
2023-01-13T19:59:43.831Z,5.46
2023-01-13T20:02:15.288Z,5.39
2023-01-13T20:04:44.936Z,5.39
2023-01-13T20:07:14.576Z,5.31
2023-01-13T20:09:44.197Z,5.28
2023-01-13T20:12:12.913Z,5.30
2023-01-13T20:14:40.901Z,5.32
2023-01-13T20:17:10.720Z,5.19
2023-01-13T20:19:38.696Z,5.15
2023-01-13T20:22:06.988Z,5.19
2023-01-13T20:24:35.355Z,4.94
2023-01-13T20:27:03.681Z,5.05
2023-01-13T20:29:32.317Z,4.95
2023-01-13T20:32:00.239Z,4.88
2023-01-13T20:34:29.763Z,4.80
2023-01-13T20:36:57.707Z,4.79
2023-01-13T20:39:26.988Z,4.88
2023-01-13T20:42:12.654Z,4.80
2023-01-13T20:44:40.821Z,4.79
2023-01-13T20:47:09.001Z,4.77
2023-01-13T20:49:38.304Z,4.89
2023-01-13T20:52:09.665Z,4.95
2023-01-13T20:54:37.723Z,4.98
2023-01-13T20:57:06.669Z,5.04
2023-01-13T20:59:34.887Z,4.98
2023-01-13T21:02:02.932Z,5.00
2023-01-13T21:04:31.070Z,5.09
2023-01-13T21:07:00.509Z,5.12
2023-01-13T21:09:29.273Z,5.22
2023-01-13T21:12:14.844Z,5.25
2023-01-13T21:15:00.002Z,5.24
2023-01-13T21:17:41.794Z,5.20
2023-01-13T21:20:11.592Z,5.24
2023-01-13T21:22:41.723Z,5.30
2023-01-13T21:25:12.006Z,5.27
2023-01-13T21:27:39.956Z,5.35
2023-01-13T21:30:09.177Z,5.31
2023-01-13T21:32:37.079Z,5.22
2023-01-13T21:35:05.624Z,5.09
2023-01-13T21:37:33.629Z,4.95
2023-01-13T21:40:02.952Z,4.92
2023-01-13T21:42:48.106Z,4.94
2023-01-13T21:45:33.526Z,4.97
2023-01-13T21:48:01.465Z,5.00
2023-01-13T21:50:29.936Z,4.92
2023-01-13T21:52:58.770Z,4.98
2023-01-13T21:55:29.400Z,4.98
2023-01-13T21:57:58.657Z,4.86
2023-01-13T22:00:28.217Z,4.74
2023-01-13T22:02:56.493Z,4.73
2023-01-13T22:05:25.906Z,4.66
2023-01-13T22:07:54.132Z,4.72
2023-01-13T22:10:23.995Z,4.70
2023-01-13T22:12:55.611Z,4.77
2023-01-13T22:15:26.647Z,4.78
2023-01-13T22:17:55.050Z,4.79
2023-01-13T22:20:23.848Z,4.70
2023-01-13T22:22:51.750Z,4.76
2023-01-13T22:25:20.329Z,4.79
2023-01-13T22:27:49.207Z,4.70
2023-01-13T22:30:21.787Z,4.60
2023-01-13T22:32:50.200Z,4.66
2023-01-13T22:35:18.112Z,4.61
2023-01-13T22:37:46.034Z,4.75
2023-01-13T22:40:14.577Z,4.77
2023-01-13T22:42:43.645Z,4.79
2023-01-13T22:45:13.099Z,4.71
2023-01-13T22:47:42.619Z,4.62
2023-01-13T22:50:12.601Z,4.63
2023-01-13T22:52:40.815Z,4.66
2023-01-13T22:55:09.876Z,4.62
2023-01-13T22:57:47.420Z,4.63
2023-01-13T23:00:19.063Z,4.66
2023-01-13T23:02:48.575Z,4.65
2023-01-13T23:05:16.686Z,4.95
2023-01-13T23:07:44.613Z,4.90
2023-01-13T23:10:12.810Z,4.79
2023-01-13T23:12:40.682Z,4.71
2023-01-13T23:15:09.334Z,4.75
2023-01-13T23:17:37.338Z,4.83
2023-01-13T23:20:07.135Z,4.75
2023-01-13T23:22:38.600Z,4.68
2023-01-13T23:25:07.578Z,4.71
2023-01-13T23:27:36.002Z,4.62
2023-01-13T23:30:04.704Z,4.65
2023-01-13T23:32:32.618Z,4.69
2023-01-13T23:35:00.609Z,4.60
2023-01-13T23:37:29.896Z,4.49
2023-01-13T23:39:57.800Z,4.36
2023-01-13T23:42:25.712Z,4.30
2023-01-13T23:44:53.614Z,4.25
2023-01-13T23:47:22.580Z,4.43
2023-01-13T23:49:50.505Z,4.34
2023-01-13T23:52:18.464Z,4.43
2023-01-13T23:54:47.817Z,4.35
2023-01-13T23:57:15.735Z,4.52
2023-01-13T23:59:43.815Z,4.52
